Rome State Information

FAA: REO - ICAO: KREO

Rome State (Airport) Location

State Oregon
County Malheur
City Rome
Rome State (Airport) is 20 miles southwest of Rome, OR.
Latitude 42-34-39.5760N
Longitude 117-53-07.5480W
Elevation 4,053ft

Rome State METARs

METAR KREO 170452Z AUTO 10006KT 13/M03 A3002 RMK AO1 SLP139 T01281033
Altimeter 30.02"
Temperature 12.8°C (55.0°F)
Wind 100° at 6KT
Clouds at 0ft
Visibility mi
Time observed: 2022-05-17T04:52:00Z

Rome State (Airport) Details

Status Operational
Activation December 1943
Ownership Public
Usage Public
Chart KLAMATH FALLS
ATC on-site No
Beacon schedule N/A
Beacon color N/A

Rome State (Airport) Contacts

Owner OREGON DEPARTMENT OF AVIATION
Owner address 3040 25TH ST SE, SALEM, OR 97302-1125
Owner phone 503-378-4880
Manager WAYNE PERRY
Manager address 11245 SE 6TH ST STE 240, BELLEVUE, WA 98004
Manager phone (425) 519-3988

Rome State Radio Frequencies

Rome State (Airport) Radio Frequencies

UNICOM N/A
Common traffic advisory frequency (CTAF) 122.9